Time;durP1;ratioP1;P1;durP2;ratioP2;P2;SDS_P1;SDS_P2;PMS_P1;PMS_P2;Temp;Humidity;BMP_temperature;BMP_pressure;BME280_temperature;BME280_humidity;BME280_pressure;Samples;Min_cycle;Max_cycle;Signal;HPM_P1;HPM_P2
2022/01/23 00:04:32;;;;;;;19.88;11.23;;;2.50;99.90;;;;;;4991510;28;20218;-78
2022/01/23 00:07:02;;;;;;;19.07;11.90;;;2.60;99.90;;;;;;4992356;28;20219;-78
2022/01/23 00:09:28;;;;;;;21.13;13.57;;;2.60;99.90;;;;;;4992476;28;20195;-78
2022/01/23 00:11:55;;;;;;;21.40;13.50;;;2.60;99.90;;;;;;4992026;28;20215;-77
2022/01/23 00:17:18;;;;;;;24.60;14.32;;;2.60;99.90;;;;;;4992492;28;20399;-77
2022/01/23 00:19:49;;;;;;;24.00;13.80;;;2.60;99.90;;;;;;4992214;28;20628;-78
2022/01/23 00:22:16;;;;;;;21.33;13.75;;;2.60;99.90;;;;;;4991657;28;20194;-78
2022/01/23 00:30:25;;;;;;;22.52;13.55;;;2.40;99.90;;;;;;4990688;28;20202;-77
2022/01/23 00:32:51;;;;;;;24.55;14.05;;;2.30;99.90;;;;;;4990984;28;20215;-75
2022/01/23 00:35:17;;;;;;;27.77;13.77;;;2.30;99.90;;;;;;4990959;28;20202;-78
2022/01/23 00:37:43;;;;;;;29.10;13.98;;;2.30;99.90;;;;;;4991684;28;20179;-77
2022/01/23 00:40:10;;;;;;;24.77;13.07;;;2.20;99.90;;;;;;4991843;28;20631;-78
2022/01/23 00:42:36;;;;;;;25.15;14.10;;;2.20;99.90;;;;;;4992423;28;20180;-77
2022/01/23 00:47:40;;;;;;;25.95;13.57;;;2.30;99.90;;;;;;4991639;28;20910;-77
2022/01/23 00:50:07;;;;;;;24.73;14.13;;;2.30;99.90;;;;;;4973989;28;20291;-78
2022/01/23 00:52:32;;;;;;;23.80;13.55;;;2.30;99.90;;;;;;4991392;28;20299;-78
2022/01/23 00:55:00;;;;;;;26.87;14.33;;;2.30;99.90;;;;;;4990101;28;20244;-78
2022/01/23 00:57:26;;;;;;;24.80;14.50;;;2.30;99.90;;;;;;4990426;28;20640;-77
2022/01/23 00:59:52;;;;;;;27.25;14.40;;;2.30;99.90;;;;;;4991266;28;20790;-77
2022/01/23 01:02:18;;;;;;;27.53;14.77;;;2.30;99.90;;;;;;4991514;28;20186;-78
2022/01/23 01:04:43;;;;;;;26.53;15.03;;;2.30;99.90;;;;;;4991751;28;20459;-78
2022/01/23 01:07:09;;;;;;;26.23;13.87;;;2.40;99.90;;;;;;4989774;28;20191;-77
2022/01/23 01:09:35;;;;;;;30.33;15.33;;;2.40;99.90;;;;;;4991054;28;20309;-78
2022/01/23 01:12:06;;;;;;;24.63;13.37;;;2.40;99.90;;;;;;4990982;28;20207;-77
2022/01/23 01:17:10;;;;;;;20.03;11.23;;;2.40;99.90;;;;;;4991960;28;20207;-77
2022/01/23 01:35:55;;;;;;;16.73;9.90;;;2.30;99.90;;;;;;4993471;28;20218;-78
2022/01/23 01:38:21;;;;;;;22.65;10.63;;;2.30;99.90;;;;;;4994200;28;20188;-78
2022/01/23 01:40:47;;;;;;;17.80;10.63;;;2.40;99.90;;;;;;4990738;28;20194;-78
2022/01/23 01:43:12;;;;;;;19.70;10.37;;;2.50;99.90;;;;;;4991202;28;20182;-78
2022/01/23 01:45:40;;;;;;;15.30;9.57;;;2.30;99.90;;;;;;4990651;28;20204;-76
2022/01/23 01:48:06;;;;;;;18.00;10.00;;;2.30;99.90;;;;;;4988776;28;20200;-77
2022/01/23 01:50:33;;;;;;;17.43;11.50;;;2.30;99.90;;;;;;4989502;28;20274;-78
2022/01/23 01:53:00;;;;;;;20.75;10.95;;;2.30;99.90;;;;;;4990135;28;20219;-78
2022/01/23 01:55:29;;;;;;;21.38;11.18;;;2.30;99.90;;;;;;4989419;28;20213;-77
2022/01/23 01:58:02;;;;;;;24.55;11.13;;;2.30;99.90;;;;;;4990585;28;20175;-78
2022/01/23 02:08:26;;;;;;;21.08;11.10;;;2.30;99.90;;;;;;4993538;28;20230;-78
2022/01/23 02:10:58;;;;;;;15.17;9.67;;;2.30;99.90;;;;;;4979063;28;20195;-77
2022/01/23 02:13:32;;;;;;;15.95;10.13;;;2.20;99.90;;;;;;4994402;28;20442;-77
2022/01/23 02:16:30;;;;;;;17.27;10.32;;;2.30;99.90;;;;;;4994348;28;20291;-76
2022/01/23 02:56:53;;;;;;;17.48;10.38;;;2.60;99.90;;;;;;4997350;28;20227;-78
2022/01/23 02:59:28;;;;;;;18.90;10.82;;;2.60;99.90;;;;;;4984045;28;20214;-78
2022/01/23 03:02:08;;;;;;;17.57;10.87;;;2.60;99.90;;;;;;5000496;28;20195;-77
2022/01/23 03:04:38;;;;;;;17.00;10.30;;;2.50;99.90;;;;;;4995657;28;20510;-77
2022/01/23 03:10:00;;;;;;;25.57;11.40;;;2.50;99.90;;;;;;4992311;28;20228;-77
2022/01/23 03:15:46;;;;;;;22.27;14.10;;;2.50;99.90;;;;;;4992998;28;20220;-77
2022/01/23 03:26:35;;;;;;;20.60;11.20;;;2.70;99.90;;;;;;4977058;28;20244;-77
2022/01/23 03:34:11;;;;;;;23.90;13.65;;;2.90;99.90;;;;;;4992643;28;20185;-78
2022/01/23 03:36:38;;;;;;;24.38;13.38;;;2.70;99.90;;;;;;4992306;28;20234;-77
2022/01/23 03:39:08;;;;;;;26.30;13.30;;;2.70;99.90;;;;;;4998016;28;20187;-79
2022/01/23 03:41:36;;;;;;;28.80;13.07;;;2.70;99.90;;;;;;4991080;28;20190;-78
2022/01/23 03:44:04;;;;;;;21.55;13.20;;;2.70;99.90;;;;;;4993411;28;20287;-79
2022/01/23 03:46:49;;;;;;;24.00;12.85;;;2.70;99.90;;;;;;4992725;28;20239;-78
2022/01/23 03:49:32;;;;;;;21.00;11.43;;;2.70;99.90;;;;;;4993579;28;20177;-77
2022/01/23 03:52:03;;;;;;;19.10;10.60;;;2.70;99.90;;;;;;4992643;28;20234;-80
2022/01/23 03:54:29;;;;;;;16.48;9.85;;;2.60;99.90;;;;;;4992085;28;20967;-79
2022/01/23 03:56:57;;;;;;;21.67;12.30;;;2.60;99.90;;;;;;4993720;28;20210;-79
2022/01/23 03:59:22;;;;;;;20.65;11.88;;;2.60;99.90;;;;;;4994115;28;20227;-80
2022/01/23 04:01:48;;;;;;;26.00;13.37;;;2.70;99.90;;;;;;4992725;28;20224;-76
2022/01/23 04:04:47;;;;;;;18.57;11.83;;;2.60;99.90;;;;;;4990915;28;20266;-75
2022/01/23 04:07:22;;;;;;;20.05;11.82;;;2.60;99.90;;;;;;4989443;28;20199;-75
2022/01/23 04:09:49;;;;;;;20.13;12.00;;;2.60;99.90;;;;;;4990692;28;20559;-75
2022/01/23 04:15:13;;;;;;;21.13;11.33;;;2.60;99.90;;;;;;4994491;28;20708;-79
2022/01/23 04:18:35;;;;;;;20.42;12.20;;;2.60;99.90;;;;;;4993692;28;20457;-78
2022/01/23 05:04:17;;;;;;;28.07;13.20;;;2.50;99.90;;;;;;4989714;28;20202;-74
2022/01/23 05:06:46;;;;;;;28.98;14.30;;;2.50;99.90;;;;;;4987932;28;20465;-73
2022/01/23 05:09:14;;;;;;;25.45;12.98;;;2.50;99.90;;;;;;4989464;28;20191;-73
2022/01/23 05:11:47;;;;;;;24.52;12.55;;;2.50;99.90;;;;;;4989450;28;20251;-74
2022/01/23 05:14:13;;;;;;;18.02;11.02;;;2.50;99.90;;;;;;4989679;28;20174;-74
2022/01/23 05:16:39;;;;;;;20.75;11.63;;;2.50;99.90;;;;;;4989490;28;20313;-74
2022/01/23 05:19:06;;;;;;;20.47;11.10;;;2.50;99.90;;;;;;4989607;28;20934;-74
2022/01/23 05:24:06;;;;;;;23.52;12.23;;;2.50;99.90;;;;;;4990210;28;20791;-76
2022/01/23 05:26:39;;;;;;;21.33;11.83;;;2.50;99.90;;;;;;4988142;28;20235;-77
2022/01/23 05:29:05;;;;;;;23.00;12.93;;;2.60;99.90;;;;;;4988664;28;20187;-76
2022/01/23 05:31:30;;;;;;;19.73;11.77;;;2.50;99.90;;;;;;4991928;28;20220;-79
2022/01/23 05:33:56;;;;;;;18.60;11.73;;;2.60;99.90;;;;;;4991504;28;20270;-82
2022/01/23 05:36:22;;;;;;;28.60;11.90;;;2.50;99.90;;;;;;4958964;28;20205;-78
2022/01/23 05:38:48;;;;;;;19.70;11.27;;;2.50;99.90;;;;;;4974672;28;20249;-78
2022/01/23 05:41:14;;;;;;;22.87;11.87;;;2.50;99.90;;;;;;4990893;28;20186;-78
2022/01/23 05:43:39;;;;;;;20.60;12.00;;;2.50;99.90;;;;;;4977573;28;20278;-78
2022/01/23 05:46:05;;;;;;;25.13;13.30;;;2.50;99.90;;;;;;4977354;28;20243;-76
2022/01/23 05:48:31;;;;;;;20.37;10.93;;;2.60;99.90;;;;;;4994166;28;20187;-77
2022/01/23 05:50:56;;;;;;;20.20;11.40;;;2.50;99.90;;;;;;4995054;28;20184;-76
2022/01/23 05:53:22;;;;;;;23.33;12.83;;;2.50;99.90;;;;;;4995823;28;20223;-79
2022/01/23 05:55:48;;;;;;;19.77;11.57;;;2.50;99.90;;;;;;4994338;28;20195;-78
2022/01/23 05:58:13;;;;;;;23.30;11.10;;;2.50;99.90;;;;;;4976967;28;20279;-79
2022/01/23 06:00:39;;;;;;;22.40;11.43;;;2.50;99.90;;;;;;4993377;28;20557;-77
2022/01/23 06:03:05;;;;;;;21.77;11.90;;;2.50;99.90;;;;;;4995077;28;20192;-78
2022/01/23 06:05:30;;;;;;;18.57;11.00;;;2.60;99.90;;;;;;4977109;28;20269;-78
2022/01/23 06:07:56;;;;;;;27.43;12.90;;;2.60;99.90;;;;;;4975886;28;20188;-78
2022/01/23 06:10:24;;;;;;;23.53;12.17;;;2.50;99.90;;;;;;4996089;28;20635;-78
2022/01/23 06:12:50;;;;;;;20.13;11.10;;;2.60;99.90;;;;;;4995701;28;20620;-79
2022/01/23 06:15:16;;;;;;;34.30;12.90;;;2.60;99.90;;;;;;4996249;28;20200;-79
2022/01/23 06:17:43;;;;;;;22.88;12.25;;;2.60;99.90;;;;;;4992573;28;20286;-78
2022/01/23 06:20:11;;;;;;;24.47;11.50;;;2.60;99.90;;;;;;4993097;28;20189;-75
2022/01/23 06:22:37;;;;;;;25.77;11.88;;;2.60;99.90;;;;;;4993037;28;20426;-73
2022/01/23 06:25:05;;;;;;;21.27;11.50;;;2.60;99.90;;;;;;4992818;28;20220;-74
2022/01/23 06:27:32;;;;;;;21.25;11.75;;;2.50;99.90;;;;;;4992613;28;20183;-74
2022/01/23 06:29:58;;;;;;;20.10;11.55;;;2.60;99.90;;;;;;4992527;28;20567;-73
2022/01/23 06:32:24;;;;;;;21.67;12.17;;;2.60;99.90;;;;;;4992353;28;20216;-73
2022/01/23 06:34:50;;;;;;;18.57;10.37;;;2.70;99.90;;;;;;4991255;28;20426;-73
2022/01/23 06:37:16;;;;;;;17.77;10.40;;;2.60;99.90;;;;;;4992139;28;20435;-74
2022/01/23 06:39:42;;;;;;;18.97;10.30;;;2.50;99.90;;;;;;4992038;28;20503;-75
2022/01/23 06:42:08;;;;;;;20.00;10.47;;;2.50;99.90;;;;;;4992325;28;20212;-74
2022/01/23 06:44:34;;;;;;;17.63;10.97;;;2.40;99.90;;;;;;4992015;28;20194;-74
2022/01/23 06:47:00;;;;;;;23.63;10.97;;;2.50;99.90;;;;;;4992006;28;20981;-74
2022/01/23 06:49:25;;;;;;;21.70;11.97;;;2.50;99.90;;;;;;4992007;28;20534;-74
2022/01/23 06:51:51;;;;;;;26.30;12.70;;;2.50;99.90;;;;;;4991791;28;20251;-74
2022/01/23 06:54:17;;;;;;;27.40;12.60;;;2.50;99.90;;;;;;4990281;28;20788;-74
2022/01/23 06:56:43;;;;;;;23.70;13.33;;;2.50;99.90;;;;;;4991830;28;20982;-74
2022/01/23 06:59:09;;;;;;;23.40;12.53;;;2.40;99.90;;;;;;4991764;28;20424;-74
2022/01/23 07:01:34;;;;;;;21.10;12.80;;;2.50;99.90;;;;;;4991683;28;20606;-74
2022/01/23 07:04:00;;;;;;;22.77;13.77;;;2.50;99.90;;;;;;4991775;28;20423;-74
2022/01/23 07:06:26;;;;;;;25.53;14.50;;;2.50;99.90;;;;;;4990111;28;20218;-74
2022/01/23 07:08:51;;;;;;;26.93;14.37;;;2.60;99.90;;;;;;4991672;28;20179;-74
2022/01/23 07:11:17;;;;;;;23.90;13.03;;;2.60;99.90;;;;;;4990158;28;20185;-74
2022/01/23 07:13:43;;;;;;;22.13;12.43;;;2.70;99.90;;;;;;4991693;28;20271;-74
2022/01/23 07:16:08;;;;;;;22.00;12.97;;;2.70;99.90;;;;;;4991621;28;20219;-74
2022/01/23 07:18:34;;;;;;;22.03;11.47;;;2.70;99.90;;;;;;4991903;28;20185;-74
2022/01/23 07:21:00;;;;;;;22.20;12.07;;;2.70;99.90;;;;;;4991607;28;20186;-74
2022/01/23 07:23:25;;;;;;;25.57;13.27;;;2.80;99.90;;;;;;4991707;28;20237;-74
2022/01/23 07:25:51;;;;;;;22.67;12.10;;;2.80;99.90;;;;;;4990165;28;20212;-74
2022/01/23 07:28:20;;;;;;;19.10;11.20;;;2.80;99.90;;;;;;4991694;28;20201;-74
2022/01/23 07:30:57;;;;;;;23.17;13.00;;;2.70;99.90;;;;;;4991515;28;20183;-74
2022/01/23 07:33:22;;;;;;;23.23;12.20;;;2.80;99.90;;;;;;4991631;28;20209;-73
2022/01/23 07:35:48;;;;;;;26.63;12.40;;;2.80;99.90;;;;;;4991485;28;20246;-74
2022/01/23 07:38:18;;;;;;;23.77;13.40;;;2.80;99.90;;;;;;4991573;28;20183;-74
2022/01/23 07:40:45;;;;;;;26.25;13.02;;;2.80;99.90;;;;;;4992103;28;20184;-73
2022/01/23 07:43:12;;;;;;;53.80;18.20;;;2.80;99.90;;;;;;4973777;28;20800;-74
2022/01/23 07:45:38;;;;;;;37.20;16.30;;;2.80;99.90;;;;;;4991054;28;20443;-73
2022/01/23 07:48:04;;;;;;;47.63;18.37;;;2.80;99.90;;;;;;4989716;28;20287;-74
2022/01/23 07:50:30;;;;;;;33.83;16.10;;;2.90;99.90;;;;;;4991176;28;21140;-74
2022/01/23 07:52:56;;;;;;;33.37;16.07;;;2.90;99.90;;;;;;4990764;28;20572;-75
2022/01/23 07:55:21;;;;;;;29.93;15.17;;;2.90;99.90;;;;;;4989756;28;20452;-74
2022/01/23 07:57:47;;;;;;;26.77;13.50;;;2.90;99.90;;;;;;4991291;28;20207;-74
2022/01/23 08:00:13;;;;;;;20.37;12.87;;;3.00;99.90;;;;;;4991446;28;20192;-74
2022/01/23 08:02:40;;;;;;;32.38;15.25;;;3.00;99.90;;;;;;4991459;28;20203;-75
2022/01/23 08:05:06;;;;;;;42.08;18.50;;;3.00;99.90;;;;;;4990466;28;20326;-75
2022/01/23 08:07:32;;;;;;;48.40;17.97;;;2.90;99.90;;;;;;4989514;28;20198;-74
2022/01/23 08:09:59;;;;;;;38.10;20.53;;;2.90;99.90;;;;;;4988841;28;20420;-74
2022/01/23 08:12:26;;;;;;;40.30;19.90;;;3.00;99.90;;;;;;4990158;28;20463;-75
2022/01/23 08:14:53;;;;;;;40.95;21.60;;;3.00;99.90;;;;;;4990623;28;20569;-74
2022/01/23 08:17:20;;;;;;;42.45;20.77;;;3.10;99.90;;;;;;4990639;28;20595;-74
2022/01/23 08:19:46;;;;;;;33.65;17.92;;;2.90;99.90;;;;;;4990708;28;20271;-74
2022/01/23 08:22:12;;;;;;;31.97;18.63;;;3.00;99.90;;;;;;4990713;28;20347;-75
2022/01/23 08:24:37;;;;;;;36.63;17.23;;;3.00;99.90;;;;;;4989310;28;20429;-74
2022/01/23 08:27:03;;;;;;;34.57;18.50;;;3.10;99.90;;;;;;4990589;28;20191;-75
2022/01/23 08:29:29;;;;;;;30.55;17.88;;;3.00;99.90;;;;;;4990458;28;20258;-75
2022/01/23 08:31:55;;;;;;;31.83;17.17;;;3.10;99.90;;;;;;4990345;28;20302;-74
2022/01/23 08:34:21;;;;;;;26.03;16.10;;;3.10;99.90;;;;;;4989994;28;20186;-75
2022/01/23 08:36:46;;;;;;;35.30;17.37;;;3.00;99.90;;;;;;4990044;28;20204;-75
2022/01/23 08:39:12;;;;;;;33.50;17.43;;;3.00;99.90;;;;;;4990743;28;20196;-75
2022/01/23 08:41:50;;;;;;;37.67;19.60;;;3.10;99.90;;;;;;4990380;28;20183;-74
2022/01/23 08:44:20;;;;;;;39.15;19.95;;;3.10;99.90;;;;;;4989822;28;20189;-74
2022/01/23 08:46:46;;;;;;;30.30;17.97;;;3.20;99.90;;;;;;4989718;28;20680;-75
2022/01/23 08:49:12;;;;;;;36.90;19.05;;;3.20;99.90;;;;;;4989494;28;20812;-74
2022/01/23 08:51:38;;;;;;;40.50;20.80;;;3.20;99.90;;;;;;4987932;28;20212;-74
2022/01/23 08:54:04;;;;;;;31.57;17.90;;;3.20;99.90;;;;;;4989561;28;20293;-74
2022/01/23 08:56:30;;;;;;;31.37;17.00;;;3.20;99.90;;;;;;4987985;28;20287;-74
2022/01/23 08:58:56;;;;;;;38.43;17.70;;;3.20;99.90;;;;;;4987814;28;20504;-75
2022/01/23 09:01:23;;;;;;;30.53;15.50;;;3.30;99.90;;;;;;4989171;28;20995;-75
2022/01/23 09:03:49;;;;;;;26.17;15.43;;;3.30;99.90;;;;;;4987560;28;20333;-74
2022/01/23 09:06:15;;;;;;;25.97;14.40;;;3.30;99.90;;;;;;4988822;28;20295;-74
2022/01/23 09:08:41;;;;;;;27.30;15.47;;;3.30;99.90;;;;;;4988781;28;20673;-74
2022/01/23 09:11:11;;;;;;;26.53;14.77;;;3.40;99.90;;;;;;4988870;28;20422;-74
2022/01/23 09:13:54;;;;;;;33.97;15.48;;;3.40;99.90;;;;;;4988916;28;20423;-74
2022/01/23 09:16:20;;;;;;;30.50;15.43;;;3.50;99.90;;;;;;4988998;28;20207;-75
2022/01/23 09:18:46;;;;;;;31.33;16.47;;;3.60;99.90;;;;;;4988851;28;20424;-75
2022/01/23 09:21:12;;;;;;;26.67;16.90;;;3.60;99.90;;;;;;4988892;28;20431;-74
2022/01/23 09:23:38;;;;;;;36.97;20.70;;;3.60;99.90;;;;;;4988889;28;20419;-74
2022/01/23 09:26:10;;;;;;;44.43;26.03;;;3.60;99.90;;;;;;4988726;28;20443;-74
2022/01/23 09:28:39;;;;;;;43.23;25.47;;;3.60;99.90;;;;;;4988875;28;20971;-74
2022/01/23 09:31:05;;;;;;;38.65;22.08;;;3.70;99.90;;;;;;4988717;28;20419;-74
2022/01/23 09:33:31;;;;;;;39.23;21.27;;;3.70;99.90;;;;;;4987189;28;20224;-74
2022/01/23 09:35:57;;;;;;;33.87;19.83;;;3.70;99.90;;;;;;4988726;28;20200;-74
2022/01/23 09:38:23;;;;;;;29.00;19.02;;;3.70;99.90;;;;;;4988725;28;20234;-74
2022/01/23 09:40:57;;;;;;;28.43;17.77;;;3.70;99.90;;;;;;4988812;28;20555;-75
2022/01/23 09:43:24;;;;;;;31.23;17.85;;;3.60;99.90;;;;;;4988776;28;20646;-74
2022/01/23 09:45:53;;;;;;;28.27;16.45;;;3.70;99.90;;;;;;4989608;28;20773;-75
2022/01/23 09:48:21;;;;;;;24.42;15.18;;;3.80;99.90;;;;;;4970987;28;20193;-75
2022/01/23 09:50:48;;;;;;;27.98;17.10;;;3.90;99.90;;;;;;4988436;28;20189;-75
2022/01/23 09:53:14;;;;;;;25.05;15.05;;;3.80;99.90;;;;;;4988373;28;20750;-74
2022/01/23 09:55:43;;;;;;;22.42;15.52;;;4.00;99.90;;;;;;4987018;28;20203;-74
2022/01/23 09:58:09;;;;;;;27.45;17.52;;;4.00;99.90;;;;;;4988636;28;20225;-74
2022/01/23 10:00:35;;;;;;;30.73;18.77;;;4.00;99.90;;;;;;4987331;28;20211;-75
2022/01/23 10:03:01;;;;;;;32.05;17.65;;;4.10;99.90;;;;;;4988568;28;20185;-75
2022/01/23 10:05:28;;;;;;;30.97;19.17;;;4.10;99.90;;;;;;4987224;28;20258;-75
2022/01/23 10:07:54;;;;;;;35.30;19.58;;;4.20;99.90;;;;;;4988082;28;20193;-75
2022/01/23 10:10:25;;;;;;;34.40;20.70;;;4.10;99.90;;;;;;4987077;28;20200;-75
2022/01/23 10:12:55;;;;;;;36.97;22.03;;;4.30;99.90;;;;;;4988207;28;20246;-75
2022/01/23 10:15:25;;;;;;;31.60;18.40;;;4.30;99.90;;;;;;4988495;28;20427;-74
2022/01/23 10:17:51;;;;;;;33.95;20.38;;;4.20;99.90;;;;;;4988134;28;20195;-74
2022/01/23 10:20:18;;;;;;;35.03;21.47;;;4.20;99.90;;;;;;4988216;28;20188;-75
2022/01/23 10:22:47;;;;;;;33.83;21.13;;;4.20;99.90;;;;;;4988096;28;20432;-74
2022/01/23 10:25:19;;;;;;;28.17;18.23;;;4.20;99.90;;;;;;4988089;28;20458;-75
2022/01/23 10:28:01;;;;;;;32.00;19.00;;;4.30;99.90;;;;;;4988309;28;20428;-74
2022/01/23 10:30:30;;;;;;;32.67;18.27;;;4.30;99.90;;;;;;4991795;28;20415;-75
2022/01/23 10:33:10;;;;;;;29.33;17.57;;;4.20;99.90;;;;;;4991835;28;20462;-75
2022/01/23 10:35:55;;;;;;;32.63;17.77;;;4.20;99.90;;;;;;4991794;28;20511;-75
2022/01/23 10:38:22;;;;;;;32.40;18.15;;;4.30;99.90;;;;;;4991420;28;20416;-74
2022/01/23 10:41:02;;;;;;;30.45;16.40;;;4.30;99.90;;;;;;4991441;28;20185;-75
2022/01/23 10:48:59;;;;;;;33.65;18.85;;;4.30;99.90;;;;;;4991335;28;20459;-75
2022/01/23 10:51:28;;;;;;;35.97;20.77;;;4.40;99.90;;;;;;4991112;28;20254;-75
2022/01/23 10:54:15;;;;;;;33.13;18.57;;;4.30;99.90;;;;;;4991174;28;20450;-75
2022/01/23 10:57:16;;;;;;;43.63;21.48;;;4.30;99.90;;;;;;4991364;28;21238;-74
2022/01/23 10:59:47;;;;;;;36.60;19.63;;;4.40;99.90;;;;;;4952692;28;20236;-75
2022/01/23 11:02:18;;;;;;;29.03;19.10;;;4.50;99.90;;;;;;4987517;28;20206;-75
2022/01/23 11:04:52;;;;;;;29.30;17.40;;;4.50;99.90;;;;;;4991218;28;20429;-75
2022/01/23 11:07:19;;;;;;;31.83;19.77;;;4.50;99.90;;;;;;4991309;28;21003;-75
2022/01/23 11:09:45;;;;;;;47.30;28.23;;;4.60;99.90;;;;;;4991034;28;20454;-73
2022/01/23 11:17:56;;;;;;;25.43;16.47;;;4.70;99.90;;;;;;4990935;28;20423;-75
2022/01/23 11:20:54;;;;;;;31.57;17.13;;;4.70;99.90;;;;;;4990706;28;20898;-75
2022/01/23 11:23:27;;;;;;;30.10;18.33;;;4.80;99.90;;;;;;4967117;28;20427;-75
2022/01/23 11:25:52;;;;;;;30.70;17.47;;;4.80;99.90;;;;;;4990463;28;20472;-75
2022/01/23 11:28:19;;;;;;;32.77;20.07;;;4.80;99.90;;;;;;4990147;28;20466;-75
2022/01/23 11:30:48;;;;;;;26.20;17.00;;;4.80;99.90;;;;;;4990316;28;20189;-75
2022/01/23 11:33:17;;;;;;;22.37;14.97;;;4.80;99.90;;;;;;4990290;28;20472;-76
2022/01/23 11:35:44;;;;;;;27.23;15.37;;;4.90;99.90;;;;;;4989058;28;21023;-75
2022/01/23 11:38:14;;;;;;;27.80;15.67;;;4.90;99.90;;;;;;4990096;28;20482;-75
2022/01/23 11:54:00;;;;;;;22.50;14.07;;;5.00;99.90;;;;;;4989704;28;20440;-75
2022/01/23 11:56:30;;;;;;;21.33;14.30;;;5.00;99.90;;;;;;4989525;28;20519;-75
2022/01/23 11:59:19;;;;;;;21.93;14.60;;;5.00;99.90;;;;;;4989505;28;20413;-75
2022/01/23 12:01:48;;;;;;;19.97;13.17;;;5.10;99.90;;;;;;4989721;28;20887;-75
2022/01/23 12:07:11;;;;;;;18.83;12.77;;;5.40;99.90;;;;;;4989380;28;20984;-74
2022/01/23 12:09:43;;;;;;;20.90;13.43;;;5.40;99.90;;;;;;4989199;28;20523;-74
2022/01/23 12:17:39;;;;;;;22.57;15.83;;;5.40;99.90;;;;;;4989276;28;21238;-75
2022/01/23 12:20:06;;;;;;;21.53;13.57;;;5.40;99.90;;;;;;4988246;28;20462;-75
2022/01/23 12:22:36;;;;;;;18.07;12.77;;;5.50;99.90;;;;;;4989120;28;20508;-74
2022/01/23 12:25:09;;;;;;;16.95;11.50;;;5.40;99.90;;;;;;4989186;28;20447;-73
2022/01/23 12:27:36;;;;;;;21.40;13.83;;;5.50;99.90;;;;;;4987642;28;20193;-74
2022/01/23 12:30:15;;;;;;;24.50;13.00;;;5.50;99.90;;;;;;4989098;28;20509;-74
2022/01/23 12:32:41;;;;;;;21.57;12.97;;;5.50;99.90;;;;;;4988952;28;20806;-74
2022/01/23 12:35:10;;;;;;;16.90;11.37;;;5.60;99.90;;;;;;4989024;28;20433;-74
2022/01/23 12:38:02;;;;;;;18.83;11.93;;;5.50;99.90;;;;;;4987496;28;20828;-74
2022/01/23 12:40:31;;;;;;;17.13;11.87;;;5.60;99.90;;;;;;4987311;28;21086;-74
2022/01/23 12:43:18;;;;;;;17.47;12.00;;;5.60;99.90;;;;;;4988846;28;20475;-74
2022/01/23 12:45:45;;;;;;;18.90;12.13;;;5.80;99.90;;;;;;4988691;28;20437;-75
2022/01/23 12:48:29;;;;;;;17.73;9.83;;;5.60;99.90;;;;;;4988832;28;20431;-75
2022/01/23 12:51:28;;;;;;;13.13;9.47;;;5.70;99.90;;;;;;4988567;28;20427;-77
2022/01/23 12:53:53;;;;;;;12.20;7.90;;;5.60;99.90;;;;;;4989628;28;20499;-74
2022/01/23 12:56:40;;;;;;;14.00;9.37;;;5.50;99.90;;;;;;5006669;28;20433;-75
2022/01/23 12:59:09;;;;;;;12.30;8.93;;;5.50;99.90;;;;;;4975171;28;20264;-74
2022/01/23 13:01:36;;;;;;;18.10;11.60;;;5.50;99.90;;;;;;4988739;28;20448;-75
2022/01/23 13:04:08;;;;;;;17.60;12.13;;;5.50;99.90;;;;;;4988596;28;20459;-75
2022/01/23 13:06:38;;;;;;;20.50;11.63;;;5.40;99.90;;;;;;4988369;28;21029;-75
2022/01/23 13:18:02;;;;;;;26.43;14.80;;;5.20;99.90;;;;;;4989582;28;20467;-77
2022/01/23 13:32:07;;;;;;;19.70;12.70;;;4.90;99.90;;;;;;4990187;28;20559;-78
2022/01/23 13:34:41;;;;;;;13.20;9.33;;;4.80;99.90;;;;;;4988418;28;20431;-78
2022/01/23 13:37:11;;;;;;;18.20;11.20;;;4.80;99.90;;;;;;4988213;28;20424;-77
2022/01/23 13:39:45;;;;;;;16.77;11.30;;;4.80;99.90;;;;;;4987735;28;20436;-78
2022/01/23 13:59:41;;;;;;;14.30;10.03;;;4.80;99.90;;;;;;4991200;28;20416;-77
2022/01/23 14:02:35;;;;;;;14.90;10.27;;;4.80;99.90;;;;;;4988729;28;20416;-77
2022/01/23 14:05:18;;;;;;;16.07;11.50;;;4.80;99.90;;;;;;4989233;28;20476;-74
2022/01/23 14:07:50;;;;;;;10.00;7.40;;;4.70;99.90;;;;;;4990465;28;21004;-76
2022/01/23 14:10:23;;;;;;;17.25;10.85;;;4.80;99.90;;;;;;4991654;28;20456;-74
2022/01/23 14:12:51;;;;;;;19.23;12.43;;;4.80;99.90;;;;;;4991555;28;20220;-76
2022/01/23 14:15:30;;;;;;;24.00;15.80;;;4.80;99.90;;;;;;4989895;28;20970;-75
2022/01/23 14:18:07;;;;;;;25.17;15.77;;;4.80;99.90;;;;;;4991367;28;21077;-75
2022/01/23 14:20:39;;;;;;;30.40;19.05;;;4.80;99.90;;;;;;4991091;28;20740;-75
2022/01/23 14:23:16;;;;;;;32.33;18.92;;;4.70;99.90;;;;;;4992061;28;20283;-75
2022/01/23 14:25:48;;;;;;;18.90;13.23;;;4.80;99.90;;;;;;4991434;28;20205;-75
2022/01/23 14:28:16;;;;;;;15.43;10.67;;;4.80;99.90;;;;;;4990177;28;20622;-75
2022/01/23 14:30:48;;;;;;;16.52;11.55;;;4.80;99.90;;;;;;4991780;28;20429;-75
2022/01/23 14:33:22;;;;;;;13.30;7.87;;;4.70;99.90;;;;;;4991180;28;20273;-75
2022/01/23 14:35:49;;;;;;;3.37;3.10;;;4.80;99.90;;;;;;4991361;28;20501;-75
2022/01/23 14:38:17;;;;;;;5.90;3.27;;;4.70;99.90;;;;;;4990118;28;20515;-74
2022/01/23 14:41:09;;;;;;;3.40;3.07;;;4.70;99.90;;;;;;4990139;28;20424;-74
2022/01/23 14:43:39;;;;;;;2.85;2.65;;;4.60;99.90;;;;;;4990578;28;20930;-74
2022/01/23 14:46:07;;;;;;;3.22;2.95;;;4.60;99.90;;;;;;4989908;28;20221;-74
2022/01/23 14:48:39;;;;;;;3.03;2.83;;;4.50;99.90;;;;;;4991635;28;20185;-76
2022/01/23 14:51:05;;;;;;;4.20;3.00;;;4.50;99.90;;;;;;4991387;28;20188;-76
2022/01/23 14:53:34;;;;;;;3.80;3.50;;;4.50;99.90;;;;;;4989687;28;20480;-76
2022/01/23 14:56:02;;;;;;;3.75;2.95;;;4.40;99.90;;;;;;4991115;28;20212;-76
2022/01/23 14:58:30;;;;;;;5.17;3.97;;;4.50;99.90;;;;;;4990948;28;20182;-75
2022/01/23 15:00:57;;;;;;;4.65;3.35;;;4.50;99.90;;;;;;4990758;28;20509;-75
2022/01/23 15:03:24;;;;;;;6.25;4.60;;;4.50;99.90;;;;;;4990844;28;20197;-75
2022/01/23 15:05:50;;;;;;;7.35;4.97;;;4.50;99.90;;;;;;4990814;28;20226;-76
2022/01/23 15:08:20;;;;;;;3.50;3.20;;;4.40;99.90;;;;;;4991055;28;20185;-75
2022/01/23 15:10:46;;;;;;;5.73;4.70;;;4.40;99.90;;;;;;4990982;28;20432;-75
2022/01/23 15:13:13;;;;;;;8.50;5.37;;;4.40;99.90;;;;;;4990836;28;20478;-76
2022/01/23 15:15:39;;;;;;;8.38;5.30;;;4.40;99.90;;;;;;4990566;28;20443;-75
2022/01/23 15:18:05;;;;;;;4.40;3.20;;;4.40;99.90;;;;;;4990865;28;20855;-75
2022/01/23 15:20:33;;;;;;;4.70;3.27;;;4.30;99.90;;;;;;4989570;28;20424;-75
2022/01/23 15:22:59;;;;;;;9.70;8.10;;;4.30;99.90;;;;;;4991018;28;20420;-75
2022/01/23 15:25:26;;;;;;;6.37;5.07;;;4.30;99.90;;;;;;4990992;28;20518;-75
2022/01/23 15:27:52;;;;;;;4.93;3.77;;;4.20;99.90;;;;;;4990943;28;20478;-76
2022/01/23 15:30:21;;;;;;;3.92;3.53;;;4.30;99.90;;;;;;4990961;28;20448;-75
2022/01/23 15:32:47;;;;;;;4.00;3.17;;;4.30;99.90;;;;;;4990732;28;20221;-74
2022/01/23 15:35:14;;;;;;;4.10;3.70;;;4.20;99.90;;;;;;4990829;28;21332;-74
2022/01/23 15:37:40;;;;;;;3.30;3.10;;;4.30;99.90;;;;;;4989316;28;20424;-75
2022/01/23 15:40:10;;;;;;;7.53;3.23;;;4.30;99.90;;;;;;4990771;28;20411;-75
2022/01/23 15:42:37;;;;;;;5.30;4.77;;;4.20;99.90;;;;;;4990646;28;20920;-75
2022/01/23 15:45:04;;;;;;;4.30;3.90;;;4.20;99.90;;;;;;4990425;28;20836;-75
2022/01/23 15:47:30;;;;;;;3.53;3.23;;;4.20;99.90;;;;;;4990413;28;20413;-75
2022/01/23 15:49:55;;;;;;;5.80;3.10;;;4.20;99.90;;;;;;4990523;28;20428;-75
2022/01/23 15:52:21;;;;;;;2.87;2.50;;;4.20;99.90;;;;;;4990929;28;20236;-75
2022/01/23 15:54:47;;;;;;;3.57;3.27;;;4.20;99.90;;;;;;4991030;28;20694;-75
2022/01/23 15:57:13;;;;;;;5.73;4.33;;;4.20;99.90;;;;;;4991213;28;20824;-75
2022/01/23 15:59:39;;;;;;;4.40;4.00;;;4.20;99.90;;;;;;4991045;28;20483;-75
2022/01/23 16:02:07;;;;;;;4.47;3.93;;;4.20;99.90;;;;;;4989506;28;21011;-76
2022/01/23 16:04:37;;;;;;;9.10;6.90;;;4.20;99.90;;;;;;4990792;28;20253;-75
2022/01/23 16:07:04;;;;;;;34.87;18.33;;;4.20;99.90;;;;;;4990592;28;20428;-75
2022/01/23 16:09:29;;;;;;;10.10;5.90;;;4.10;99.90;;;;;;4990436;28;20419;-75
2022/01/23 16:11:55;;;;;;;10.90;8.23;;;4.10;99.90;;;;;;4990633;28;20700;-76
2022/01/23 16:14:21;;;;;;;5.93;4.20;;;4.10;99.90;;;;;;4990662;28;20672;-75
2022/01/23 16:16:48;;;;;;;4.50;3.80;;;4.00;99.90;;;;;;4990398;28;20436;-74
2022/01/23 16:19:14;;;;;;;6.25;4.13;;;4.10;99.90;;;;;;4990421;28;20408;-76
2022/01/23 16:21:41;;;;;;;4.90;4.40;;;4.00;99.90;;;;;;4990387;28;20251;-75
2022/01/23 16:24:07;;;;;;;3.15;2.85;;;4.00;99.90;;;;;;4990778;28;20917;-75
2022/01/23 16:26:33;;;;;;;4.40;4.00;;;4.00;99.90;;;;;;4989667;28;20271;-75
2022/01/23 16:29:00;;;;;;;7.90;5.67;;;4.00;99.90;;;;;;4990448;28;20424;-76